sensor_id;sensor_type;location;lat;lon;timestamp;P1;durP1;ratioP1;P2;durP2;ratioP2
428;SDS011;201;48.758;9.290;2022-07-22T00:01:33;9.07;;;8.10;;
428;SDS011;201;48.758;9.290;2022-07-22T00:03:58;9.37;;;8.87;;
428;SDS011;201;48.758;9.290;2022-07-22T00:06:24;9.17;;;8.67;;
428;SDS011;201;48.758;9.290;2022-07-22T00:08:51;9.07;;;8.57;;
428;SDS011;201;48.758;9.290;2022-07-22T00:11:16;9.60;;;9.10;;
428;SDS011;201;48.758;9.290;2022-07-22T00:13:42;8.60;;;8.17;;
428;SDS011;201;48.758;9.290;2022-07-22T00:16:07;9.23;;;8.73;;
428;SDS011;201;48.758;9.290;2022-07-22T00:18:33;8.90;;;7.60;;
428;SDS011;201;48.758;9.290;2022-07-22T00:20:59;8.93;;;8.43;;
428;SDS011;201;48.758;9.290;2022-07-22T00:23:24;9.33;;;8.83;;
428;SDS011;201;48.758;9.290;2022-07-22T00:25:50;8.90;;;8.40;;
428;SDS011;201;48.758;9.290;2022-07-22T00:28:15;9.20;;;8.70;;
428;SDS011;201;48.758;9.290;2022-07-22T00:30:41;9.60;;;9.00;;
428;SDS011;201;48.758;9.290;2022-07-22T00:33:06;9.67;;;9.17;;
428;SDS011;201;48.758;9.290;2022-07-22T00:35:32;9.47;;;8.97;;
428;SDS011;201;48.758;9.290;2022-07-22T00:37:58;9.93;;;9.43;;
428;SDS011;201;48.758;9.290;2022-07-22T00:40:23;9.87;;;9.37;;
428;SDS011;201;48.758;9.290;2022-07-22T00:42:49;10.67;;;10.03;;
428;SDS011;201;48.758;9.290;2022-07-22T00:45:15;9.33;;;8.83;;
428;SDS011;201;48.758;9.290;2022-07-22T00:47:41;9.57;;;9.07;;
428;SDS011;201;48.758;9.290;2022-07-22T00:50:06;11.23;;;9.10;;
428;SDS011;201;48.758;9.290;2022-07-22T00:52:33;11.17;;;9.67;;
428;SDS011;201;48.758;9.290;2022-07-22T00:54:59;14.83;;;9.10;;
428;SDS011;201;48.758;9.290;2022-07-22T00:57:25;9.77;;;9.17;;
428;SDS011;201;48.758;9.290;2022-07-22T00:59:51;9.37;;;8.87;;
428;SDS011;201;48.758;9.290;2022-07-22T01:02:18;10.27;;;9.77;;
428;SDS011;201;48.758;9.290;2022-07-22T01:04:43;9.30;;;8.80;;
428;SDS011;201;48.758;9.290;2022-07-22T01:07:09;10.80;;;10.20;;
428;SDS011;201;48.758;9.290;2022-07-22T01:09:35;9.83;;;9.33;;
428;SDS011;201;48.758;9.290;2022-07-22T01:12:01;12.00;;;9.80;;
428;SDS011;201;48.758;9.290;2022-07-22T01:14:27;10.13;;;9.63;;
428;SDS011;201;48.758;9.290;2022-07-22T01:16:53;12.30;;;9.43;;
428;SDS011;201;48.758;9.290;2022-07-22T01:19:19;9.70;;;9.20;;
428;SDS011;201;48.758;9.290;2022-07-22T01:21:44;10.33;;;9.83;;
428;SDS011;201;48.758;9.290;2022-07-22T01:24:10;9.80;;;9.30;;
428;SDS011;201;48.758;9.290;2022-07-22T01:26:35;11.00;;;9.37;;
428;SDS011;201;48.758;9.290;2022-07-22T01:29:01;10.83;;;10.03;;
428;SDS011;201;48.758;9.290;2022-07-22T01:31:28;9.37;;;8.87;;
428;SDS011;201;48.758;9.290;2022-07-22T01:33:54;11.33;;;9.20;;
428;SDS011;201;48.758;9.290;2022-07-22T01:36:20;10.70;;;10.10;;
428;SDS011;201;48.758;9.290;2022-07-22T01:38:45;11.30;;;9.00;;
428;SDS011;201;48.758;9.290;2022-07-22T01:41:11;16.40;;;9.87;;
428;SDS011;201;48.758;9.290;2022-07-22T01:43:36;15.90;;;11.17;;
428;SDS011;201;48.758;9.290;2022-07-22T01:46:02;16.10;;;10.10;;
428;SDS011;201;48.758;9.290;2022-07-22T01:48:28;12.87;;;10.03;;
428;SDS011;201;48.758;9.290;2022-07-22T01:50:54;10.80;;;9.80;;
428;SDS011;201;48.758;9.290;2022-07-22T01:53:19;11.30;;;10.70;;
428;SDS011;201;48.758;9.290;2022-07-22T01:55:45;10.93;;;10.20;;
428;SDS011;201;48.758;9.290;2022-07-22T01:58:11;12.77;;;9.50;;
428;SDS011;201;48.758;9.290;2022-07-22T02:00:36;10.10;;;9.60;;
428;SDS011;201;48.758;9.290;2022-07-22T02:03:02;10.40;;;9.90;;
428;SDS011;201;48.758;9.290;2022-07-22T02:05:28;10.43;;;9.90;;
428;SDS011;201;48.758;9.290;2022-07-22T02:07:58;10.90;;;10.30;;
428;SDS011;201;48.758;9.290;2022-07-22T02:10:25;14.70;;;11.20;;
428;SDS011;201;48.758;9.290;2022-07-22T02:12:51;10.23;;;9.73;;
428;SDS011;201;48.758;9.290;2022-07-22T02:15:17;11.10;;;10.20;;
428;SDS011;201;48.758;9.290;2022-07-22T02:17:42;12.13;;;11.07;;
428;SDS011;201;48.758;9.290;2022-07-22T02:20:08;14.07;;;10.33;;
428;SDS011;201;48.758;9.290;2022-07-22T02:22:34;11.40;;;10.80;;
428;SDS011;201;48.758;9.290;2022-07-22T02:24:59;12.30;;;11.70;;
428;SDS011;201;48.758;9.290;2022-07-22T02:27:25;11.00;;;10.40;;
428;SDS011;201;48.758;9.290;2022-07-22T02:29:51;11.53;;;10.93;;
428;SDS011;201;48.758;9.290;2022-07-22T02:32:17;12.30;;;11.10;;
428;SDS011;201;48.758;9.290;2022-07-22T02:34:42;11.10;;;10.50;;
428;SDS011;201;48.758;9.290;2022-07-22T02:37:08;13.20;;;11.50;;
428;SDS011;201;48.758;9.290;2022-07-22T02:39:33;11.60;;;11.00;;
428;SDS011;201;48.758;9.290;2022-07-22T02:41:59;11.10;;;10.43;;
428;SDS011;201;48.758;9.290;2022-07-22T02:44:24;12.03;;;11.40;;
428;SDS011;201;48.758;9.290;2022-07-22T02:46:49;13.13;;;10.80;;
428;SDS011;201;48.758;9.290;2022-07-22T02:49:15;10.80;;;10.13;;
428;SDS011;201;48.758;9.290;2022-07-22T02:51:40;11.47;;;10.87;;
428;SDS011;201;48.758;9.290;2022-07-22T02:54:06;11.80;;;11.20;;
428;SDS011;201;48.758;9.290;2022-07-22T02:56:31;14.43;;;11.47;;
428;SDS011;201;48.758;9.290;2022-07-22T02:58:57;10.83;;;10.23;;
428;SDS011;201;48.758;9.290;2022-07-22T03:01:22;13.30;;;11.13;;
428;SDS011;201;48.758;9.290;2022-07-22T03:03:48;13.07;;;12.37;;
428;SDS011;201;48.758;9.290;2022-07-22T03:06:14;13.53;;;12.07;;
428;SDS011;201;48.758;9.290;2022-07-22T03:08:39;11.90;;;11.30;;
428;SDS011;201;48.758;9.290;2022-07-22T03:11:05;13.80;;;13.10;;
428;SDS011;201;48.758;9.290;2022-07-22T03:13:31;12.17;;;11.57;;
428;SDS011;201;48.758;9.290;2022-07-22T03:15:56;13.90;;;13.00;;
428;SDS011;201;48.758;9.290;2022-07-22T03:18:22;15.37;;;14.20;;
428;SDS011;201;48.758;9.290;2022-07-22T03:20:48;14.33;;;13.63;;
428;SDS011;201;48.758;9.290;2022-07-22T03:23:13;15.40;;;14.60;;
428;SDS011;201;48.758;9.290;2022-07-22T03:25:39;16.83;;;15.90;;
428;SDS011;201;48.758;9.290;2022-07-22T03:28:05;17.60;;;14.10;;
428;SDS011;201;48.758;9.290;2022-07-22T03:30:31;21.23;;;16.67;;
428;SDS011;201;48.758;9.290;2022-07-22T03:32:57;18.93;;;17.17;;
428;SDS011;201;48.758;9.290;2022-07-22T03:35:22;17.17;;;15.67;;
428;SDS011;201;48.758;9.290;2022-07-22T03:37:48;15.53;;;14.53;;
428;SDS011;201;48.758;9.290;2022-07-22T03:40:14;16.77;;;15.93;;
428;SDS011;201;48.758;9.290;2022-07-22T03:42:39;17.33;;;15.30;;
428;SDS011;201;48.758;9.290;2022-07-22T03:45:05;17.17;;;15.07;;
428;SDS011;201;48.758;9.290;2022-07-22T03:47:31;21.63;;;15.33;;
428;SDS011;201;48.758;9.290;2022-07-22T03:49:57;15.23;;;14.43;;
428;SDS011;201;48.758;9.290;2022-07-22T03:52:23;17.10;;;16.20;;
428;SDS011;201;48.758;9.290;2022-07-22T03:54:49;14.57;;;13.73;;
428;SDS011;201;48.758;9.290;2022-07-22T03:57:15;15.03;;;14.20;;
428;SDS011;201;48.758;9.290;2022-07-22T03:59:41;16.20;;;13.50;;
428;SDS011;201;48.758;9.290;2022-07-22T04:02:06;16.57;;;14.60;;
428;SDS011;201;48.758;9.290;2022-07-22T04:04:32;14.87;;;14.07;;
428;SDS011;201;48.758;9.290;2022-07-22T04:06:57;15.40;;;13.70;;
428;SDS011;201;48.758;9.290;2022-07-22T04:09:23;14.30;;;13.53;;
428;SDS011;201;48.758;9.290;2022-07-22T04:11:48;13.60;;;12.90;;
428;SDS011;201;48.758;9.290;2022-07-22T04:14:15;13.67;;;12.97;;
428;SDS011;201;48.758;9.290;2022-07-22T04:16:41;13.97;;;13.27;;
428;SDS011;201;48.758;9.290;2022-07-22T04:19:08;15.50;;;14.70;;
428;SDS011;201;48.758;9.290;2022-07-22T04:21:34;13.80;;;11.87;;
428;SDS011;201;48.758;9.290;2022-07-22T04:24:00;11.93;;;11.33;;
428;SDS011;201;48.758;9.290;2022-07-22T04:26:25;16.20;;;12.07;;
428;SDS011;201;48.758;9.290;2022-07-22T04:28:51;13.83;;;13.17;;
428;SDS011;201;48.758;9.290;2022-07-22T04:31:17;14.27;;;12.13;;
428;SDS011;201;48.758;9.290;2022-07-22T04:33:42;11.83;;;11.23;;
428;SDS011;201;48.758;9.290;2022-07-22T04:36:08;11.33;;;10.73;;
428;SDS011;201;48.758;9.290;2022-07-22T04:38:33;11.67;;;10.33;;
428;SDS011;201;48.758;9.290;2022-07-22T04:40:59;11.40;;;10.80;;
428;SDS011;201;48.758;9.290;2022-07-22T04:43:25;12.43;;;10.40;;
428;SDS011;201;48.758;9.290;2022-07-22T04:45:50;11.43;;;10.83;;
428;SDS011;201;48.758;9.290;2022-07-22T04:48:16;12.90;;;11.40;;
428;SDS011;201;48.758;9.290;2022-07-22T04:50:42;15.20;;;12.10;;
428;SDS011;201;48.758;9.290;2022-07-22T04:53:08;14.13;;;12.20;;
428;SDS011;201;48.758;9.290;2022-07-22T04:55:34;13.80;;;12.83;;
428;SDS011;201;48.758;9.290;2022-07-22T04:57:59;12.80;;;11.83;;
428;SDS011;201;48.758;9.290;2022-07-22T05:00:25;12.20;;;11.60;;
428;SDS011;201;48.758;9.290;2022-07-22T05:02:51;21.30;;;12.53;;
428;SDS011;201;48.758;9.290;2022-07-22T05:05:17;13.63;;;11.83;;
428;SDS011;201;48.758;9.290;2022-07-22T05:07:42;12.53;;;11.90;;
428;SDS011;201;48.758;9.290;2022-07-22T05:10:08;12.27;;;11.43;;
428;SDS011;201;48.758;9.290;2022-07-22T05:12:33;12.33;;;11.73;;
428;SDS011;201;48.758;9.290;2022-07-22T05:14:59;16.57;;;11.77;;
428;SDS011;201;48.758;9.290;2022-07-22T05:17:25;11.73;;;11.13;;
428;SDS011;201;48.758;9.290;2022-07-22T05:19:50;12.30;;;11.70;;
428;SDS011;201;48.758;9.290;2022-07-22T05:22:16;12.17;;;11.57;;
428;SDS011;201;48.758;9.290;2022-07-22T05:24:41;11.67;;;10.30;;
428;SDS011;201;48.758;9.290;2022-07-22T05:27:07;10.77;;;10.17;;
428;SDS011;201;48.758;9.290;2022-07-22T05:29:33;14.13;;;12.30;;
428;SDS011;201;48.758;9.290;2022-07-22T05:31:58;12.37;;;11.73;;
428;SDS011;201;48.758;9.290;2022-07-22T05:34:24;13.63;;;10.63;;
428;SDS011;201;48.758;9.290;2022-07-22T05:36:49;13.00;;;11.97;;
428;SDS011;201;48.758;9.290;2022-07-22T05:39:15;12.00;;;11.40;;
428;SDS011;201;48.758;9.290;2022-07-22T05:41:40;13.13;;;10.97;;
428;SDS011;201;48.758;9.290;2022-07-22T05:44:06;11.50;;;10.90;;
428;SDS011;201;48.758;9.290;2022-07-22T05:46:31;12.87;;;12.00;;
428;SDS011;201;48.758;9.290;2022-07-22T05:48:57;12.23;;;11.63;;
428;SDS011;201;48.758;9.290;2022-07-22T05:51:23;12.87;;;11.67;;
428;SDS011;201;48.758;9.290;2022-07-22T05:53:48;13.50;;;11.67;;
428;SDS011;201;48.758;9.290;2022-07-22T05:56:14;12.80;;;12.10;;
428;SDS011;201;48.758;9.290;2022-07-22T05:58:40;11.70;;;11.10;;
428;SDS011;201;48.758;9.290;2022-07-22T06:01:07;14.03;;;12.20;;
428;SDS011;201;48.758;9.290;2022-07-22T06:03:36;13.33;;;12.63;;
428;SDS011;201;48.758;9.290;2022-07-22T06:06:02;12.20;;;11.60;;
428;SDS011;201;48.758;9.290;2022-07-22T06:08:29;12.93;;;12.23;;
428;SDS011;201;48.758;9.290;2022-07-22T06:10:56;17.73;;;14.43;;
428;SDS011;201;48.758;9.290;2022-07-22T06:13:22;14.17;;;13.47;;
428;SDS011;201;48.758;9.290;2022-07-22T06:15:48;16.90;;;14.17;;
428;SDS011;201;48.758;9.290;2022-07-22T06:18:13;17.20;;;13.60;;
428;SDS011;201;48.758;9.290;2022-07-22T06:20:39;17.33;;;13.70;;
428;SDS011;201;48.758;9.290;2022-07-22T06:23:05;15.30;;;12.93;;
428;SDS011;201;48.758;9.290;2022-07-22T06:25:30;13.93;;;12.10;;
428;SDS011;201;48.758;9.290;2022-07-22T06:27:56;11.80;;;11.20;;
428;SDS011;201;48.758;9.290;2022-07-22T06:30:21;11.67;;;10.07;;
428;SDS011;201;48.758;9.290;2022-07-22T06:32:47;11.57;;;11.00;;
428;SDS011;201;48.758;9.290;2022-07-22T06:35:12;10.13;;;9.63;;
428;SDS011;201;48.758;9.290;2022-07-22T06:37:38;11.90;;;11.30;;
428;SDS011;201;48.758;9.290;2022-07-22T06:40:04;11.57;;;10.97;;
428;SDS011;201;48.758;9.290;2022-07-22T06:42:30;13.27;;;10.80;;
428;SDS011;201;48.758;9.290;2022-07-22T06:44:55;10.17;;;9.67;;
428;SDS011;201;48.758;9.290;2022-07-22T06:47:21;10.97;;;10.37;;
428;SDS011;201;48.758;9.290;2022-07-22T06:49:46;10.77;;;10.20;;
428;SDS011;201;48.758;9.290;2022-07-22T06:52:12;11.40;;;10.80;;
428;SDS011;201;48.758;9.290;2022-07-22T06:54:37;14.33;;;10.40;;
428;SDS011;201;48.758;9.290;2022-07-22T06:57:03;11.27;;;10.67;;
428;SDS011;201;48.758;9.290;2022-07-22T06:59:28;11.40;;;10.50;;
428;SDS011;201;48.758;9.290;2022-07-22T07:01:54;9.97;;;9.33;;
428;SDS011;201;48.758;9.290;2022-07-22T07:04:19;10.63;;;10.03;;
428;SDS011;201;48.758;9.290;2022-07-22T07:06:45;10.70;;;10.10;;
428;SDS011;201;48.758;9.290;2022-07-22T07:09:10;12.13;;;9.90;;
428;SDS011;201;48.758;9.290;2022-07-22T07:11:36;10.60;;;8.37;;
428;SDS011;201;48.758;9.290;2022-07-22T07:14:02;10.50;;;9.23;;
428;SDS011;201;48.758;9.290;2022-07-22T07:16:28;9.80;;;9.30;;
428;SDS011;201;48.758;9.290;2022-07-22T07:18:54;10.00;;;9.50;;
428;SDS011;201;48.758;9.290;2022-07-22T07:21:20;10.33;;;9.83;;
428;SDS011;201;48.758;9.290;2022-07-22T07:23:45;11.50;;;10.50;;
428;SDS011;201;48.758;9.290;2022-07-22T07:26:11;12.90;;;10.23;;
428;SDS011;201;48.758;9.290;2022-07-22T07:28:38;10.83;;;10.23;;
428;SDS011;201;48.758;9.290;2022-07-22T07:31:03;11.30;;;10.73;;
428;SDS011;201;48.758;9.290;2022-07-22T07:33:29;9.80;;;9.30;;
428;SDS011;201;48.758;9.290;2022-07-22T07:35:55;10.77;;;9.40;;
428;SDS011;201;48.758;9.290;2022-07-22T07:38:20;11.67;;;9.23;;
428;SDS011;201;48.758;9.290;2022-07-22T07:40:46;11.30;;;10.70;;
428;SDS011;201;48.758;9.290;2022-07-22T07:43:11;9.10;;;8.60;;
428;SDS011;201;48.758;9.290;2022-07-22T07:45:37;10.23;;;9.60;;
428;SDS011;201;48.758;9.290;2022-07-22T07:48:03;10.80;;;10.20;;
428;SDS011;201;48.758;9.290;2022-07-22T07:50:30;9.10;;;8.60;;
428;SDS011;201;48.758;9.290;2022-07-22T07:52:56;13.00;;;10.43;;
428;SDS011;201;48.758;9.290;2022-07-22T07:55:22;9.90;;;9.27;;
428;SDS011;201;48.758;9.290;2022-07-22T07:57:48;10.07;;;9.57;;
428;SDS011;201;48.758;9.290;2022-07-22T08:00:15;9.13;;;8.63;;
428;SDS011;201;48.758;9.290;2022-07-22T08:02:42;10.43;;;9.30;;
428;SDS011;201;48.758;9.290;2022-07-22T08:05:08;9.43;;;8.93;;
428;SDS011;201;48.758;9.290;2022-07-22T08:07:34;9.50;;;9.00;;
428;SDS011;201;48.758;9.290;2022-07-22T08:10:00;10.13;;;9.63;;
428;SDS011;201;48.758;9.290;2022-07-22T08:12:27;9.77;;;9.33;;
428;SDS011;201;48.758;9.290;2022-07-22T08:14:52;8.67;;;8.17;;
428;SDS011;201;48.758;9.290;2022-07-22T08:17:18;9.13;;;8.67;;
428;SDS011;201;48.758;9.290;2022-07-22T08:19:43;9.20;;;8.67;;
428;SDS011;201;48.758;9.290;2022-07-22T08:22:09;9.27;;;8.77;;
428;SDS011;201;48.758;9.290;2022-07-22T08:24:34;10.10;;;9.60;;
428;SDS011;201;48.758;9.290;2022-07-22T08:27:00;9.00;;;8.50;;
428;SDS011;201;48.758;9.290;2022-07-22T08:29:27;9.20;;;8.70;;
428;SDS011;201;48.758;9.290;2022-07-22T08:31:52;8.83;;;8.33;;
428;SDS011;201;48.758;9.290;2022-07-22T08:34:18;9.80;;;9.30;;
428;SDS011;201;48.758;9.290;2022-07-22T08:36:43;9.40;;;8.93;;
428;SDS011;201;48.758;9.290;2022-07-22T08:39:09;9.27;;;8.77;;
428;SDS011;201;48.758;9.290;2022-07-22T08:41:35;9.10;;;8.60;;
428;SDS011;201;48.758;9.290;2022-07-22T08:44:03;8.93;;;8.43;;
428;SDS011;201;48.758;9.290;2022-07-22T08:46:29;10.30;;;9.80;;
428;SDS011;201;48.758;9.290;2022-07-22T08:48:55;9.00;;;8.50;;
428;SDS011;201;48.758;9.290;2022-07-22T08:51:21;9.70;;;9.20;;
428;SDS011;201;48.758;9.290;2022-07-22T08:53:47;8.43;;;7.97;;
428;SDS011;201;48.758;9.290;2022-07-22T08:56:13;9.30;;;8.80;;
428;SDS011;201;48.758;9.290;2022-07-22T08:58:39;8.67;;;8.17;;
428;SDS011;201;48.758;9.290;2022-07-22T09:01:09;8.73;;;8.23;;
428;SDS011;201;48.758;9.290;2022-07-22T09:06:14;7.37;;;6.97;;
428;SDS011;201;48.758;9.290;2022-07-22T09:11:23;7.73;;;7.33;;
428;SDS011;201;48.758;9.290;2022-07-22T09:13:51;8.47;;;7.87;;
428;SDS011;201;48.758;9.290;2022-07-22T09:16:37;7.40;;;7.00;;
428;SDS011;201;48.758;9.290;2022-07-22T09:19:13;7.80;;;7.40;;
428;SDS011;201;48.758;9.290;2022-07-22T09:21:40;7.70;;;7.30;;
428;SDS011;201;48.758;9.290;2022-07-22T09:24:07;8.70;;;8.20;;
428;SDS011;201;48.758;9.290;2022-07-22T09:26:36;15.63;;;12.80;;
428;SDS011;201;48.758;9.290;2022-07-22T09:29:03;5.90;;;5.60;;
428;SDS011;201;48.758;9.290;2022-07-22T09:31:31;6.50;;;6.10;;
428;SDS011;201;48.758;9.290;2022-07-22T09:33:58;8.30;;;6.20;;
428;SDS011;201;48.758;9.290;2022-07-22T09:36:25;6.67;;;6.27;;
428;SDS011;201;48.758;9.290;2022-07-22T09:38:51;6.73;;;6.33;;
428;SDS011;201;48.758;9.290;2022-07-22T09:41:16;6.53;;;6.13;;
428;SDS011;201;48.758;9.290;2022-07-22T09:43:42;6.87;;;6.20;;
428;SDS011;201;48.758;9.290;2022-07-22T09:46:09;7.40;;;7.00;;
428;SDS011;201;48.758;9.290;2022-07-22T09:48:35;7.10;;;6.70;;
428;SDS011;201;48.758;9.290;2022-07-22T09:51:02;7.53;;;7.13;;
428;SDS011;201;48.758;9.290;2022-07-22T09:53:29;7.00;;;6.60;;
428;SDS011;201;48.758;9.290;2022-07-22T09:55:56;7.20;;;6.80;;
428;SDS011;201;48.758;9.290;2022-07-22T09:58:26;6.57;;;6.17;;
428;SDS011;201;48.758;9.290;2022-07-22T10:00:52;6.77;;;6.37;;
428;SDS011;201;48.758;9.290;2022-07-22T10:05:51;7.40;;;7.00;;
428;SDS011;201;48.758;9.290;2022-07-22T10:08:18;6.10;;;5.80;;
428;SDS011;201;48.758;9.290;2022-07-22T10:10:45;8.03;;;6.87;;
428;SDS011;201;48.758;9.290;2022-07-22T10:13:10;6.13;;;5.83;;
428;SDS011;201;48.758;9.290;2022-07-22T10:15:36;6.60;;;6.20;;
428;SDS011;201;48.758;9.290;2022-07-22T10:18:07;7.03;;;5.80;;
428;SDS011;201;48.758;9.290;2022-07-22T10:20:40;6.40;;;6.00;;
428;SDS011;201;48.758;9.290;2022-07-22T10:23:06;6.03;;;5.73;;
428;SDS011;201;48.758;9.290;2022-07-22T10:28:23;6.57;;;6.17;;
428;SDS011;201;48.758;9.290;2022-07-22T10:30:50;6.03;;;5.50;;
428;SDS011;201;48.758;9.290;2022-07-22T10:33:17;5.73;;;5.43;;
428;SDS011;201;48.758;9.290;2022-07-22T10:35:55;6.20;;;5.90;;
428;SDS011;201;48.758;9.290;2022-07-22T10:38:22;6.27;;;5.93;;
428;SDS011;201;48.758;9.290;2022-07-22T10:40:50;6.43;;;6.03;;
428;SDS011;201;48.758;9.290;2022-07-22T10:43:22;5.90;;;5.60;;
428;SDS011;201;48.758;9.290;2022-07-22T10:46:08;7.23;;;6.40;;
428;SDS011;201;48.758;9.290;2022-07-22T10:56:11;7.03;;;6.37;;
428;SDS011;201;48.758;9.290;2022-07-22T10:58:42;7.90;;;7.50;;
428;SDS011;201;48.758;9.290;2022-07-22T11:01:12;7.23;;;6.83;;
428;SDS011;201;48.758;9.290;2022-07-22T11:03:40;6.17;;;5.83;;
428;SDS011;201;48.758;9.290;2022-07-22T11:06:21;8.20;;;5.37;;
428;SDS011;201;48.758;9.290;2022-07-22T11:08:55;5.80;;;5.50;;
428;SDS011;201;48.758;9.290;2022-07-22T11:11:31;7.03;;;6.63;;
428;SDS011;201;48.758;9.290;2022-07-22T11:14:03;6.07;;;5.77;;
428;SDS011;201;48.758;9.290;2022-07-22T11:16:52;7.00;;;6.57;;
428;SDS011;201;48.758;9.290;2022-07-22T11:19:26;7.10;;;6.13;;
428;SDS011;201;48.758;9.290;2022-07-22T11:21:54;6.63;;;6.20;;
428;SDS011;201;48.758;9.290;2022-07-22T11:24:22;6.70;;;6.30;;
428;SDS011;201;48.758;9.290;2022-07-22T11:26:49;7.60;;;6.73;;
428;SDS011;201;48.758;9.290;2022-07-22T11:29:17;7.27;;;6.87;;
428;SDS011;201;48.758;9.290;2022-07-22T11:31:54;6.40;;;6.00;;
428;SDS011;201;48.758;9.290;2022-07-22T11:34:21;6.67;;;6.27;;
428;SDS011;201;48.758;9.290;2022-07-22T11:36:47;6.93;;;6.53;;
428;SDS011;201;48.758;9.290;2022-07-22T11:39:14;7.43;;;7.03;;
428;SDS011;201;48.758;9.290;2022-07-22T11:41:44;6.53;;;6.13;;
428;SDS011;201;48.758;9.290;2022-07-22T11:44:10;6.67;;;6.27;;
428;SDS011;201;48.758;9.290;2022-07-22T11:46:40;8.53;;;6.27;;
428;SDS011;201;48.758;9.290;2022-07-22T11:49:07;7.50;;;7.10;;
428;SDS011;201;48.758;9.290;2022-07-22T11:51:34;6.90;;;6.50;;
428;SDS011;201;48.758;9.290;2022-07-22T11:54:01;6.77;;;6.37;;
428;SDS011;201;48.758;9.290;2022-07-22T11:56:27;6.90;;;6.50;;
428;SDS011;201;48.758;9.290;2022-07-22T11:58:53;7.83;;;6.63;;
428;SDS011;201;48.758;9.290;2022-07-22T12:01:20;6.70;;;6.30;;
428;SDS011;201;48.758;9.290;2022-07-22T12:03:50;7.33;;;6.60;;
428;SDS011;201;48.758;9.290;2022-07-22T12:06:18;6.13;;;5.83;;
428;SDS011;201;48.758;9.290;2022-07-22T12:08:45;7.07;;;6.67;;
428;SDS011;201;48.758;9.290;2022-07-22T12:11:16;6.63;;;6.17;;
428;SDS011;201;48.758;9.290;2022-07-22T12:13:45;5.97;;;5.67;;
428;SDS011;201;48.758;9.290;2022-07-22T12:16:27;7.87;;;5.70;;
428;SDS011;201;48.758;9.290;2022-07-22T12:21:27;6.63;;;6.23;;
428;SDS011;201;48.758;9.290;2022-07-22T12:24:05;5.80;;;5.50;;
428;SDS011;201;48.758;9.290;2022-07-22T12:26:36;5.87;;;5.57;;
428;SDS011;201;48.758;9.290;2022-07-22T12:29:22;5.90;;;5.60;;
428;SDS011;201;48.758;9.290;2022-07-22T12:31:53;7.47;;;6.13;;
428;SDS011;201;48.758;9.290;2022-07-22T12:37:07;6.60;;;6.20;;
428;SDS011;201;48.758;9.290;2022-07-22T12:39:51;6.33;;;5.97;;
428;SDS011;201;48.758;9.290;2022-07-22T12:42:22;6.63;;;5.93;;
428;SDS011;201;48.758;9.290;2022-07-22T12:44:52;6.43;;;6.07;;
428;SDS011;201;48.758;9.290;2022-07-22T12:47:41;6.67;;;6.07;;
428;SDS011;201;48.758;9.290;2022-07-22T12:50:59;7.43;;;6.60;;
428;SDS011;201;48.758;9.290;2022-07-22T12:53:04;6.03;;;5.73;;
428;SDS011;201;48.758;9.290;2022-07-22T12:55:34;8.20;;;6.40;;
428;SDS011;201;48.758;9.290;2022-07-22T12:58:01;7.37;;;6.97;;
428;SDS011;201;48.758;9.290;2022-07-22T13:00:29;6.70;;;6.30;;
428;SDS011;201;48.758;9.290;2022-07-22T13:03:06;5.53;;;5.23;;
428;SDS011;201;48.758;9.290;2022-07-22T13:05:32;5.50;;;5.20;;
428;SDS011;201;48.758;9.290;2022-07-22T13:07:59;5.47;;;5.13;;
428;SDS011;201;48.758;9.290;2022-07-22T13:10:25;5.77;;;5.47;;
428;SDS011;201;48.758;9.290;2022-07-22T13:12:51;7.10;;;6.00;;
428;SDS011;201;48.758;9.290;2022-07-22T13:15:17;5.73;;;5.20;;
428;SDS011;201;48.758;9.290;2022-07-22T13:17:44;11.73;;;5.30;;
428;SDS011;201;48.758;9.290;2022-07-22T13:20:10;5.20;;;4.90;;
428;SDS011;201;48.758;9.290;2022-07-22T13:22:38;5.40;;;5.10;;
428;SDS011;201;48.758;9.290;2022-07-22T13:25:04;5.43;;;5.13;;
428;SDS011;201;48.758;9.290;2022-07-22T13:27:30;5.67;;;5.13;;
428;SDS011;201;48.758;9.290;2022-07-22T13:29:56;7.63;;;5.23;;
428;SDS011;201;48.758;9.290;2022-07-22T13:32:21;5.43;;;5.13;;
428;SDS011;201;48.758;9.290;2022-07-22T13:34:47;5.70;;;5.40;;
428;SDS011;201;48.758;9.290;2022-07-22T13:37:12;22.57;;;8.50;;
428;SDS011;201;48.758;9.290;2022-07-22T13:39:38;6.70;;;6.27;;
428;SDS011;201;48.758;9.290;2022-07-22T13:42:05;6.30;;;5.73;;
428;SDS011;201;48.758;9.290;2022-07-22T13:44:31;6.10;;;5.80;;
428;SDS011;201;48.758;9.290;2022-07-22T13:46:57;7.10;;;6.70;;
428;SDS011;201;48.758;9.290;2022-07-22T13:49:23;7.40;;;7.00;;
428;SDS011;201;48.758;9.290;2022-07-22T13:51:49;8.97;;;5.70;;
428;SDS011;201;48.758;9.290;2022-07-22T13:54:16;5.40;;;5.10;;
428;SDS011;201;48.758;9.290;2022-07-22T13:56:42;12.70;;;6.70;;
428;SDS011;201;48.758;9.290;2022-07-22T13:59:09;6.23;;;5.90;;
428;SDS011;201;48.758;9.290;2022-07-22T14:01:34;9.77;;;5.80;;
428;SDS011;201;48.758;9.290;2022-07-22T14:04:02;6.33;;;5.97;;
428;SDS011;201;48.758;9.290;2022-07-22T14:06:29;5.80;;;5.50;;
428;SDS011;201;48.758;9.290;2022-07-22T14:08:54;6.10;;;5.80;;
428;SDS011;201;48.758;9.290;2022-07-22T14:11:20;5.90;;;5.60;;
428;SDS011;201;48.758;9.290;2022-07-22T14:13:45;6.47;;;6.10;;
428;SDS011;201;48.758;9.290;2022-07-22T14:16:11;5.80;;;5.60;;
428;SDS011;201;48.758;9.290;2022-07-22T14:18:55;5.67;;;5.37;;
428;SDS011;201;48.758;9.290;2022-07-22T14:21:20;6.47;;;6.07;;
428;SDS011;201;48.758;9.290;2022-07-22T14:23:46;6.50;;;5.50;;
428;SDS011;201;48.758;9.290;2022-07-22T14:26:11;5.93;;;5.63;;
428;SDS011;201;48.758;9.290;2022-07-22T14:28:37;5.53;;;5.00;;
428;SDS011;201;48.758;9.290;2022-07-22T14:31:03;6.63;;;5.13;;
428;SDS011;201;48.758;9.290;2022-07-22T14:33:28;5.83;;;5.47;;
428;SDS011;201;48.758;9.290;2022-07-22T14:35:54;6.60;;;5.33;;
428;SDS011;201;48.758;9.290;2022-07-22T14:38:19;5.23;;;4.93;;
428;SDS011;201;48.758;9.290;2022-07-22T14:40:45;5.60;;;5.30;;
428;SDS011;201;48.758;9.290;2022-07-22T14:43:10;5.60;;;5.07;;
428;SDS011;201;48.758;9.290;2022-07-22T14:45:36;6.60;;;4.70;;
428;SDS011;201;48.758;9.290;2022-07-22T14:48:01;5.30;;;5.00;;
428;SDS011;201;48.758;9.290;2022-07-22T14:50:27;5.20;;;4.90;;
428;SDS011;201;48.758;9.290;2022-07-22T14:52:53;5.40;;;5.00;;
428;SDS011;201;48.758;9.290;2022-07-22T14:55:18;4.80;;;4.50;;
428;SDS011;201;48.758;9.290;2022-07-22T14:57:44;5.00;;;4.70;;
428;SDS011;201;48.758;9.290;2022-07-22T15:00:09;5.10;;;4.80;;
428;SDS011;201;48.758;9.290;2022-07-22T15:02:35;5.70;;;5.40;;
428;SDS011;201;48.758;9.290;2022-07-22T15:05:00;5.70;;;5.40;;
428;SDS011;201;48.758;9.290;2022-07-22T15:07:26;5.70;;;5.40;;
428;SDS011;201;48.758;9.290;2022-07-22T15:09:52;5.37;;;5.07;;
428;SDS011;201;48.758;9.290;2022-07-22T15:12:17;5.40;;;5.10;;
428;SDS011;201;48.758;9.290;2022-07-22T15:14:43;6.10;;;5.40;;
428;SDS011;201;48.758;9.290;2022-07-22T15:17:08;6.67;;;5.80;;
428;SDS011;201;48.758;9.290;2022-07-22T15:19:34;5.77;;;4.73;;
428;SDS011;201;48.758;9.290;2022-07-22T15:21:59;5.30;;;4.87;;
428;SDS011;201;48.758;9.290;2022-07-22T15:24:25;9.27;;;5.10;;
428;SDS011;201;48.758;9.290;2022-07-22T15:26:50;5.77;;;5.47;;
428;SDS011;201;48.758;9.290;2022-07-22T15:29:16;5.20;;;4.90;;
428;SDS011;201;48.758;9.290;2022-07-22T15:31:42;6.90;;;5.90;;
428;SDS011;201;48.758;9.290;2022-07-22T15:34:08;5.83;;;5.40;;
428;SDS011;201;48.758;9.290;2022-07-22T15:36:34;5.90;;;5.60;;
428;SDS011;201;48.758;9.290;2022-07-22T15:38:59;5.83;;;5.53;;
428;SDS011;201;48.758;9.290;2022-07-22T15:41:25;5.27;;;4.97;;
428;SDS011;201;48.758;9.290;2022-07-22T15:43:50;6.23;;;5.40;;
428;SDS011;201;48.758;9.290;2022-07-22T15:46:16;5.90;;;4.97;;
428;SDS011;201;48.758;9.290;2022-07-22T15:48:41;6.37;;;5.57;;
428;SDS011;201;48.758;9.290;2022-07-22T15:51:08;5.80;;;5.50;;
428;SDS011;201;48.758;9.290;2022-07-22T15:53:33;5.60;;;5.30;;